createdAt,value
2022-11-24T00:00:33.498Z,32.95
2022-11-24T00:03:39.972Z,35.42
2022-11-24T00:06:49.454Z,36.31
2022-11-24T00:09:55.420Z,35.54
2022-11-24T00:13:02.353Z,35.02
2022-11-24T00:16:14.739Z,36.76
2022-11-24T00:19:21.883Z,36.85
2022-11-24T00:22:30.507Z,35.07
2022-11-24T00:25:38.096Z,35.24
2022-11-24T00:28:46.926Z,36.53
2022-11-24T00:31:53.942Z,37.54
2022-11-24T00:35:00.030Z,35.92
2022-11-24T00:38:09.507Z,36.39
2022-11-24T00:41:16.566Z,37.11
2022-11-24T00:44:23.324Z,37.93
2022-11-24T00:47:29.742Z,38.47
2022-11-24T00:50:36.626Z,37.99
2022-11-24T00:53:45.691Z,38.83
2022-11-24T00:56:52.627Z,42.54
2022-11-24T00:59:58.635Z,39.37
2022-11-24T01:03:05.418Z,41.10
2022-11-24T01:06:16.756Z,43.11
2022-11-24T01:09:27.167Z,42.17
2022-11-24T01:12:33.054Z,41.49
2022-11-24T01:15:40.274Z,39.04
2022-11-24T01:18:46.516Z,40.91
2022-11-24T01:21:53.562Z,38.51
2022-11-24T01:25:02.286Z,40.00
2022-11-24T01:28:09.388Z,38.60
2022-11-24T01:31:16.479Z,40.34
2022-11-24T01:34:23.393Z,42.26
2022-11-24T01:37:29.523Z,44.56
2022-11-24T01:40:38.857Z,39.67
2022-11-24T01:43:46.987Z,45.00
2022-11-24T01:47:00.860Z,43.53
2022-11-24T01:50:13.356Z,42.05
2022-11-24T01:53:20.186Z,39.06
2022-11-24T01:56:31.549Z,40.15
2022-11-24T01:59:39.652Z,39.43
2022-11-24T02:02:48.404Z,41.00
2022-11-24T02:06:07.712Z,41.91
2022-11-24T02:09:25.110Z,39.49
2022-11-24T02:12:36.548Z,41.97
2022-11-24T02:15:42.531Z,42.68
2022-11-24T02:18:50.015Z,41.92
2022-11-24T02:21:57.045Z,43.38
2022-11-24T02:25:16.810Z,44.15
2022-11-24T02:28:32.921Z,45.46
2022-11-24T02:31:39.137Z,42.95
2022-11-24T02:34:45.993Z,45.98
2022-11-24T02:37:52.176Z,47.24
2022-11-24T02:40:59.147Z,45.37
2022-11-24T02:44:08.704Z,46.47
2022-11-24T02:47:16.944Z,49.40
2022-11-24T02:50:22.935Z,54.70
2022-11-24T02:53:29.856Z,44.14
2022-11-24T02:56:35.904Z,46.93
2022-11-24T02:59:45.291Z,46.43
2022-11-24T03:02:51.421Z,45.98
2022-11-24T03:05:58.496Z,48.49
2022-11-24T03:09:04.744Z,50.36
2022-11-24T03:12:11.780Z,51.85
2022-11-24T03:15:20.442Z,46.09
2022-11-24T03:18:27.167Z,41.96
2022-11-24T03:21:33.558Z,42.58
2022-11-24T03:24:40.400Z,46.29
2022-11-24T03:27:46.952Z,47.55
2022-11-24T03:30:56.349Z,47.63
2022-11-24T03:34:02.297Z,48.64
2022-11-24T03:37:09.129Z,43.79
2022-11-24T03:40:15.884Z,41.81
2022-11-24T03:43:22.797Z,47.65
2022-11-24T03:46:31.393Z,56.09
2022-11-24T03:49:38.167Z,59.82
2022-11-24T03:52:44.058Z,56.82
2022-11-24T03:55:50.913Z,57.39
2022-11-24T03:58:56.972Z,58.84
2022-11-24T04:02:08.114Z,62.70
2022-11-24T04:05:14.141Z,56.80
2022-11-24T04:08:22.071Z,58.02
2022-11-24T04:11:40.258Z,60.34
2022-11-24T04:14:46.984Z,63.68
2022-11-24T04:18:00.604Z,65.22
2022-11-24T04:21:07.588Z,61.74
2022-11-24T04:24:13.855Z,71.20
2022-11-24T04:27:20.743Z,71.03
2022-11-24T04:30:30.739Z,56.29
2022-11-24T04:33:40.205Z,62.41
2022-11-24T04:36:46.125Z,64.34
2022-11-24T04:39:52.932Z,66.68
2022-11-24T04:42:59.188Z,63.96
2022-11-24T04:46:06.574Z,62.43
2022-11-24T04:49:15.228Z,57.24
2022-11-24T04:52:25.355Z,61.03
2022-11-24T04:55:32.381Z,59.18
2022-11-24T04:58:39.552Z,49.20
2022-11-24T05:01:45.798Z,52.43
2022-11-24T05:04:55.384Z,52.02
2022-11-24T05:08:02.756Z,54.42
2022-11-24T05:11:10.991Z,56.33
2022-11-24T05:14:16.915Z,53.07
2022-11-24T05:17:23.733Z,58.15
2022-11-24T05:20:32.253Z,63.86
2022-11-24T05:23:39.414Z,56.47
2022-11-24T05:26:47.314Z,64.35
2022-11-24T05:29:54.007Z,60.54
2022-11-24T05:33:00.387Z,63.15
2022-11-24T05:36:31.614Z,56.75
2022-11-24T05:39:38.937Z,57.98
2022-11-24T05:42:48.232Z,56.52
2022-11-24T05:45:54.317Z,54.08
2022-11-24T05:49:01.088Z,54.41
2022-11-24T05:52:10.539Z,55.01
2022-11-24T05:55:19.741Z,54.86
2022-11-24T05:58:25.606Z,55.73
2022-11-24T06:01:32.293Z,57.42
2022-11-24T06:04:38.184Z,60.54
2022-11-24T06:07:47.601Z,63.16
2022-11-24T06:10:53.587Z,67.76
2022-11-24T06:14:00.503Z,75.89
2022-11-24T06:17:09.397Z,73.89
2022-11-24T06:20:16.133Z,70.54
2022-11-24T06:23:24.586Z,63.10
2022-11-24T06:26:31.913Z,57.46
2022-11-24T06:29:40.157Z,56.29
2022-11-24T06:32:49.952Z,65.99
2022-11-24T06:35:56.075Z,72.89
2022-11-24T06:39:08.630Z,74.77
2022-11-24T06:42:18.830Z,69.28
2022-11-24T06:45:25.638Z,60.34
2022-11-24T06:48:32.629Z,64.63
2022-11-24T06:51:39.431Z,60.94
2022-11-24T06:54:47.917Z,62.06
2022-11-24T06:57:54.593Z,64.48
2022-11-24T07:01:00.465Z,66.15
2022-11-24T07:04:07.727Z,72.97
2022-11-24T07:07:13.699Z,64.55
2022-11-24T07:10:23.536Z,58.90
2022-11-24T07:13:30.477Z,71.84
2022-11-24T07:16:37.840Z,67.20
2022-11-24T07:19:43.810Z,63.00
2022-11-24T07:22:50.476Z,66.13
2022-11-24T07:26:03.715Z,68.89
2022-11-24T07:29:13.154Z,59.81
2022-11-24T07:32:19.197Z,52.94
2022-11-24T07:35:26.702Z,47.56
2022-11-24T07:38:33.301Z,48.19
2022-11-24T07:41:42.702Z,62.39
2022-11-24T07:44:48.823Z,73.25
2022-11-24T07:47:55.451Z,53.81
2022-11-24T07:51:02.958Z,50.84
2022-11-24T07:54:09.727Z,52.11
2022-11-24T07:57:18.214Z,53.95
2022-11-24T08:00:25.059Z,59.05
2022-11-24T08:03:31.102Z,54.92
2022-11-24T08:06:42.091Z,57.38
2022-11-24T08:09:52.798Z,54.54
2022-11-24T08:13:04.000Z,52.08
2022-11-24T08:16:15.198Z,49.61
2022-11-24T08:19:22.019Z,48.85
2022-11-24T08:22:27.971Z,49.47
2022-11-24T08:25:35.208Z,51.09
2022-11-24T08:28:43.899Z,53.36
2022-11-24T08:31:50.642Z,50.83
2022-11-24T08:35:13.008Z,47.33
2022-11-24T08:38:20.529Z,46.16
2022-11-24T08:41:28.204Z,49.71
2022-11-24T08:44:37.833Z,49.06
2022-11-24T08:47:43.789Z,48.66
2022-11-24T08:50:50.440Z,50.10
2022-11-24T08:53:59.013Z,49.77
2022-11-24T08:57:05.742Z,56.70
2022-11-24T09:00:22.705Z,58.72
2022-11-24T09:03:29.649Z,54.89
2022-11-24T09:06:35.529Z,51.30
2022-11-24T09:09:42.244Z,50.56
2022-11-24T09:12:48.909Z,48.10
2022-11-24T09:15:58.330Z,49.36
2022-11-24T09:19:08.268Z,50.82
2022-11-24T09:22:14.921Z,50.16
2022-11-24T09:25:21.221Z,49.19
2022-11-24T09:28:27.822Z,51.31
2022-11-24T09:31:40.343Z,52.65
2022-11-24T09:34:46.996Z,55.51
2022-11-24T09:37:52.996Z,54.64
2022-11-24T09:41:23.490Z,55.41
2022-11-24T09:45:04.832Z,55.96
2022-11-24T09:48:27.074Z,57.31
2022-11-24T09:51:37.029Z,57.91
2022-11-24T09:55:00.523Z,55.81
2022-11-24T09:58:24.776Z,57.14
2022-11-24T10:01:37.240Z,56.51
2022-11-24T10:04:50.773Z,55.92
2022-11-24T10:08:21.451Z,54.88
2022-11-24T10:11:41.616Z,54.61
2022-11-24T10:15:28.956Z,56.74
2022-11-24T10:18:53.547Z,53.83
2022-11-24T10:22:29.046Z,53.45
2022-11-24T10:25:51.332Z,49.33
2022-11-24T10:28:59.581Z,50.14
2022-11-24T10:32:18.151Z,45.93
2022-11-24T10:35:32.544Z,45.52
2022-11-24T10:38:56.574Z,48.00
2022-11-24T10:42:17.414Z,50.13
2022-11-24T10:45:25.927Z,51.65
2022-11-24T10:48:45.884Z,51.93
2022-11-24T10:52:07.275Z,52.98
2022-11-24T10:55:16.955Z,52.00
2022-11-24T10:58:34.421Z,50.84
2022-11-24T11:01:44.313Z,50.80
2022-11-24T11:04:50.311Z,49.09
2022-11-24T11:12:43.851Z,44.50
2022-11-24T11:15:51.495Z,42.41
2022-11-24T11:18:57.911Z,42.30
2022-11-24T11:22:09.389Z,40.37
2022-11-24T11:25:27.942Z,40.08
2022-11-24T11:28:37.244Z,41.26
2022-11-24T11:34:02.735Z,39.62
2022-11-24T11:35:16.388Z,38.93
2022-11-24T11:38:23.947Z,41.70
2022-11-24T11:41:38.878Z,45.24
2022-11-24T11:44:57.384Z,47.27
2022-11-24T11:48:28.569Z,50.42
2022-11-24T11:51:56.905Z,60.05
2022-11-24T11:55:36.768Z,50.29
2022-11-24T11:59:17.421Z,46.45
2022-11-24T12:03:07.456Z,51.86
2022-11-24T12:06:41.147Z,60.00
2022-11-24T12:10:11.224Z,73.87
2022-11-24T12:13:58.076Z,65.01
2022-11-24T12:17:23.187Z,65.67
2022-11-24T12:20:55.997Z,74.17
2022-11-24T12:24:20.828Z,76.39
2022-11-24T12:27:47.433Z,62.13
2022-11-24T12:31:08.834Z,56.98
2022-11-24T12:34:35.482Z,59.28
2022-11-24T12:38:08.899Z,83.35
2022-11-24T12:41:44.139Z,63.92
2022-11-24T12:45:16.040Z,53.45
2022-11-24T12:48:56.293Z,52.21
2022-11-24T12:52:22.682Z,46.26
2022-11-24T12:55:36.501Z,44.06
2022-11-24T12:58:56.772Z,41.71
2022-11-24T13:02:26.668Z,42.09
2022-11-24T13:05:47.969Z,41.74
2022-11-24T13:08:54.290Z,39.22
2022-11-24T13:12:16.775Z,38.51
2022-11-24T13:15:44.634Z,45.41
2022-11-24T13:18:58.607Z,48.69
2022-11-24T13:22:28.699Z,47.25
2022-11-24T13:25:38.130Z,44.52
2022-11-24T13:29:18.388Z,46.97
2022-11-24T13:33:25.731Z,41.23
2022-11-24T13:36:56.717Z,38.38
2022-11-24T13:41:12.987Z,38.95
2022-11-24T13:44:29.560Z,42.73
2022-11-24T13:47:47.033Z,44.04
2022-11-24T13:51:25.704Z,45.91
2022-11-24T13:54:33.002Z,48.26
2022-11-24T13:57:44.329Z,43.36
2022-11-24T14:01:13.699Z,50.94
2022-11-24T14:04:30.934Z,51.15
2022-11-24T14:07:38.667Z,45.15
2022-11-24T14:10:46.618Z,44.81
2022-11-24T14:13:53.409Z,44.44
2022-11-24T14:17:30.009Z,45.26
2022-11-24T14:20:36.884Z,46.46
2022-11-24T14:23:46.372Z,46.50
2022-11-24T14:26:54.884Z,48.06
2022-11-24T14:30:03.632Z,61.23
2022-11-24T14:33:16.198Z,66.50
2022-11-24T14:36:22.292Z,63.41
2022-11-24T14:39:31.462Z,63.74
2022-11-24T14:42:37.398Z,58.32
2022-11-24T14:45:55.369Z,61.97
2022-11-24T14:49:05.612Z,54.92
2022-11-24T14:52:20.838Z,58.01
2022-11-24T14:55:31.595Z,56.07
2022-11-24T14:58:42.174Z,59.10
2022-11-24T15:01:48.944Z,66.98
2022-11-24T15:05:04.698Z,67.75
2022-11-24T15:08:18.529Z,76.01
2022-11-24T15:11:25.814Z,73.93
2022-11-24T15:14:55.203Z,88.00
2022-11-24T15:18:04.360Z,103.10
2022-11-24T15:21:19.302Z,83.82
2022-11-24T15:24:27.459Z,100.28
2022-11-24T15:27:33.554Z,98.51
2022-11-24T15:30:41.508Z,81.82
2022-11-24T15:33:47.592Z,78.08
2022-11-24T15:36:57.089Z,81.49
2022-11-24T15:40:03.138Z,97.03
2022-11-24T15:43:30.700Z,93.97
2022-11-24T15:46:38.708Z,83.04
2022-11-24T15:49:45.896Z,82.85
2022-11-24T15:52:54.930Z,109.40
2022-11-24T15:56:05.512Z,124.23
2022-11-24T15:59:20.636Z,107.12
2022-11-24T16:02:29.271Z,112.84
2022-11-24T16:05:36.740Z,99.86
2022-11-24T16:08:46.475Z,80.02
2022-11-24T16:11:52.583Z,74.29
2022-11-24T16:14:59.489Z,88.50
2022-11-24T16:18:07.058Z,90.31
2022-11-24T16:21:15.607Z,89.14
2022-11-24T16:24:24.624Z,95.06
2022-11-24T16:27:31.720Z,87.00
2022-11-24T16:30:38.386Z,90.11
2022-11-24T16:33:45.205Z,92.97
2022-11-24T16:36:51.206Z,84.51
2022-11-24T16:40:02.636Z,86.06
2022-11-24T16:43:08.768Z,93.40
2022-11-24T16:46:23.808Z,77.44
2022-11-24T16:49:29.970Z,69.94
2022-11-24T16:52:37.047Z,76.06
2022-11-24T16:55:45.729Z,89.86
2022-11-24T16:58:52.762Z,83.06
2022-11-24T17:02:00.327Z,81.07
2022-11-24T17:05:07.743Z,76.00
2022-11-24T17:08:13.743Z,78.44
2022-11-24T17:11:26.953Z,93.41
2022-11-24T17:14:33.404Z,94.64
2022-11-24T17:18:01.330Z,88.71
2022-11-24T17:21:09.694Z,83.01
2022-11-24T17:24:18.311Z,79.14
2022-11-24T17:27:26.850Z,89.02
2022-11-24T17:30:33.765Z,84.28
2022-11-24T17:33:40.647Z,100.45
2022-11-24T17:36:47.469Z,115.81
2022-11-24T17:40:12.849Z,78.34
2022-11-24T17:43:23.081Z,82.05
2022-11-24T17:46:31.378Z,71.28
2022-11-24T17:49:38.411Z,70.15
2022-11-24T17:52:44.460Z,77.36
2022-11-24T17:55:52.442Z,81.84
2022-11-24T17:59:03.773Z,100.04
2022-11-24T18:02:12.926Z,119.29
2022-11-24T18:05:19.434Z,101.31
2022-11-24T18:08:26.988Z,137.71
2022-11-24T18:11:35.062Z,87.91
2022-11-24T18:14:44.992Z,111.47
2022-11-24T18:17:55.473Z,158.20
2022-11-24T18:21:04.810Z,127.56
2022-11-24T18:24:12.190Z,122.56
2022-11-24T18:27:21.783Z,133.76
2022-11-24T18:30:30.737Z,68.94
2022-11-24T18:33:40.796Z,65.54
2022-11-24T18:36:52.191Z,68.08
2022-11-24T18:39:59.501Z,68.26
2022-11-24T18:43:05.695Z,69.69
2022-11-24T18:46:18.772Z,89.22
2022-11-24T18:49:25.083Z,110.38
2022-11-24T18:52:32.185Z,82.07
2022-11-24T18:55:39.251Z,76.23
2022-11-24T18:58:47.806Z,72.94
2022-11-24T19:01:56.760Z,78.87
2022-11-24T19:05:03.832Z,89.78
2022-11-24T19:08:09.995Z,93.88
2022-11-24T19:11:22.501Z,95.35
2022-11-24T19:14:28.846Z,96.44
2022-11-24T19:17:38.299Z,96.90
2022-11-24T19:20:44.333Z,93.58
2022-11-24T19:23:51.278Z,87.70
2022-11-24T19:26:57.422Z,77.99
2022-11-24T19:30:04.279Z,79.17
2022-11-24T19:33:14.104Z,80.57
2022-11-24T19:36:24.837Z,80.03
2022-11-24T19:39:31.128Z,78.42
2022-11-24T19:42:38.756Z,78.32
2022-11-24T19:45:45.217Z,83.12
2022-11-24T19:48:57.318Z,77.79
2022-11-24T19:52:03.307Z,74.25
2022-11-24T19:55:11.678Z,75.40
2022-11-24T19:58:18.201Z,74.45
2022-11-24T20:01:28.473Z,75.06
2022-11-24T20:04:39.979Z,78.19
2022-11-24T20:07:46.970Z,77.94
2022-11-24T20:10:53.104Z,76.20
2022-11-24T20:14:02.299Z,74.42
2022-11-24T20:17:08.603Z,73.66
2022-11-24T20:20:19.597Z,73.62
2022-11-24T20:23:25.989Z,72.29
2022-11-24T20:26:36.826Z,76.11
2022-11-24T20:29:47.064Z,74.66
2022-11-24T20:32:54.071Z,72.29
2022-11-24T20:36:06.478Z,73.67
2022-11-24T20:39:19.093Z,73.96
2022-11-24T20:42:25.227Z,72.18
2022-11-24T20:45:32.221Z,80.26
2022-11-24T20:48:40.661Z,78.38
2022-11-24T20:51:55.033Z,88.09
2022-11-24T20:55:04.082Z,95.10
2022-11-24T20:58:11.578Z,108.73
2022-11-24T21:01:22.105Z,109.01
2022-11-24T21:04:30.714Z,117.46
2022-11-24T21:11:08.669Z,129.10
2022-11-24T21:14:16.152Z,138.72
2022-11-24T21:17:23.683Z,126.57
2022-11-24T21:20:30.289Z,113.59
2022-11-24T21:23:37.860Z,119.71
2022-11-24T21:26:51.906Z,128.51
2022-11-24T21:29:58.840Z,126.23
2022-11-24T21:33:05.583Z,130.99
2022-11-24T21:36:14.807Z,131.19
2022-11-24T21:39:21.031Z,132.80
2022-11-24T21:42:30.948Z,156.04
2022-11-24T21:45:40.004Z,161.63
2022-11-24T21:48:47.161Z,151.93
2022-11-24T21:51:56.175Z,145.68
2022-11-24T21:55:03.844Z,146.85
2022-11-24T21:58:12.468Z,147.65
2022-11-24T22:01:22.489Z,146.46
2022-11-24T22:04:28.585Z,152.22
2022-11-24T22:07:35.918Z,158.42
2022-11-24T22:10:41.980Z,159.20
2022-11-24T22:13:53.274Z,148.77
2022-11-24T22:16:59.306Z,143.75
2022-11-24T22:20:06.316Z,131.46
2022-11-24T22:23:12.314Z,132.27
2022-11-24T22:26:21.985Z,127.00
2022-11-24T22:29:30.459Z,124.68
2022-11-24T22:32:40.650Z,124.45
2022-11-24T22:35:46.650Z,129.60
2022-11-24T22:38:57.707Z,123.32
2022-11-24T22:42:03.643Z,123.31
2022-11-24T22:45:14.290Z,126.56
2022-11-24T22:48:20.299Z,136.71
2022-11-24T22:51:31.450Z,145.41
2022-11-24T22:54:37.619Z,138.88
2022-11-24T22:57:48.084Z,130.36
2022-11-24T23:00:57.214Z,123.01
2022-11-24T23:04:05.342Z,139.24
2022-11-24T23:07:11.438Z,124.66
2022-11-24T23:10:18.436Z,118.15
2022-11-24T23:13:24.397Z,114.39
2022-11-24T23:16:34.369Z,110.89
2022-11-24T23:19:40.323Z,111.90
2022-11-24T23:22:47.107Z,110.55
2022-11-24T23:25:53.078Z,110.52
2022-11-24T23:28:59.905Z,116.10
2022-11-24T23:32:09.276Z,121.74
2022-11-24T23:35:15.941Z,126.87
2022-11-24T23:38:21.885Z,130.38
2022-11-24T23:41:29.290Z,130.45
2022-11-24T23:44:35.591Z,123.80
2022-11-24T23:47:45.163Z,131.38
2022-11-24T23:50:51.190Z,139.85
2022-11-24T23:53:58.727Z,136.68
2022-11-24T23:57:04.645Z,131.28
